sensor_id;sensor_type;location;lat;lon;timestamp;pressure;altitude;pressure_sealevel;temperature;humidity
17311;BME280;8773;43.300;0.394;2022-12-05T00:01:51;99558.91;;;2.52;69.02
17311;BME280;8773;43.300;0.394;2022-12-05T00:04:19;99555.53;;;2.26;70.59
17311;BME280;8773;43.300;0.394;2022-12-05T00:06:47;99553.50;;;2.05;71.43
17311;BME280;8773;43.300;0.394;2022-12-05T00:09:15;99557.13;;;1.92;72.23
17311;BME280;8773;43.300;0.394;2022-12-05T00:11:44;99555.09;;;2.08;72.15
17311;BME280;8773;43.300;0.394;2022-12-05T00:14:14;99547.47;;;2.16;71.26
17311;BME280;8773;43.300;0.394;2022-12-05T00:16:42;99545.75;;;2.39;71.02
17311;BME280;8773;43.300;0.394;2022-12-05T00:19:12;99553.50;;;2.53;70.55
17311;BME280;8773;43.300;0.394;2022-12-05T00:21:41;99555.31;;;2.64;69.69
17311;BME280;8773;43.300;0.394;2022-12-05T00:24:12;99550.03;;;2.64;69.78
17311;BME280;8773;43.300;0.394;2022-12-05T00:26:40;99561.53;;;2.87;68.96
17311;BME280;8773;43.300;0.394;2022-12-05T00:29:08;99537.34;;;2.69;68.19
17311;BME280;8773;43.300;0.394;2022-12-05T00:31:38;99557.63;;;2.68;68.57
17311;BME280;8773;43.300;0.394;2022-12-05T00:34:06;99550.53;;;2.58;69.72
17311;BME280;8773;43.300;0.394;2022-12-05T00:36:35;99555.09;;;2.56;69.67
17311;BME280;8773;43.300;0.394;2022-12-05T00:39:05;99541.88;;;2.56;69.49
17311;BME280;8773;43.300;0.394;2022-12-05T00:41:33;99547.00;;;2.46;70.24
17311;BME280;8773;43.300;0.394;2022-12-05T00:44:02;99548.97;;;2.31;69.63
17311;BME280;8773;43.300;0.394;2022-12-05T00:46:31;99551.50;;;2.33;70.35
17311;BME280;8773;43.300;0.394;2022-12-05T00:49:03;99554.00;;;2.58;70.13
17311;BME280;8773;43.300;0.394;2022-12-05T00:51:33;99547.16;;;2.56;69.57
17311;BME280;8773;43.300;0.394;2022-12-05T00:54:04;99546.66;;;2.51;69.03
17311;BME280;8773;43.300;0.394;2022-12-05T00:56:33;99554.47;;;2.28;69.72
17311;BME280;8773;43.300;0.394;2022-12-05T00:59:03;99551.44;;;2.22;70.05
17311;BME280;8773;43.300;0.394;2022-12-05T01:01:33;99557.78;;;2.43;70.67
17311;BME280;8773;43.300;0.394;2022-12-05T01:04:07;99559.88;;;2.62;69.21
17311;BME280;8773;43.300;0.394;2022-12-05T01:06:35;99561.44;;;2.64;69.67
17311;BME280;8773;43.300;0.394;2022-12-05T01:09:05;99569.19;;;2.79;69.17
17311;BME280;8773;43.300;0.394;2022-12-05T01:11:34;99547.91;;;2.34;69.05
17311;BME280;8773;43.300;0.394;2022-12-05T01:14:07;99560.47;;;2.54;69.05
17311;BME280;8773;43.300;0.394;2022-12-05T01:16:38;99564.91;;;2.89;69.19
17311;BME280;8773;43.300;0.394;2022-12-05T01:19:11;99559.69;;;3.22;67.83
17311;BME280;8773;43.300;0.394;2022-12-05T01:21:40;99571.75;;;3.37;67.37
17311;BME280;8773;43.300;0.394;2022-12-05T01:24:09;99570.03;;;3.48;67.08
17311;BME280;8773;43.300;0.394;2022-12-05T01:26:37;99563.69;;;3.39;66.54
17311;BME280;8773;43.300;0.394;2022-12-05T01:29:06;99570.81;;;3.15;66.61
17311;BME280;8773;43.300;0.394;2022-12-05T01:31:38;99548.44;;;2.85;67.28
17311;BME280;8773;43.300;0.394;2022-12-05T01:34:11;99565.13;;;3.32;67.54
17311;BME280;8773;43.300;0.394;2022-12-05T01:36:40;99567.78;;;3.32;67.18
17311;BME280;8773;43.300;0.394;2022-12-05T01:39:10;99566.56;;;3.58;67.00
17311;BME280;8773;43.300;0.394;2022-12-05T01:41:40;99550.94;;;3.55;66.09
17311;BME280;8773;43.300;0.394;2022-12-05T01:47:10;99567.41;;;3.59;65.90
17311;BME280;8773;43.300;0.394;2022-12-05T01:49:41;99569.34;;;3.79;65.36
17311;BME280;8773;43.300;0.394;2022-12-05T01:52:14;99560.69;;;3.66;65.10
17311;BME280;8773;43.300;0.394;2022-12-05T01:54:45;99571.63;;;3.39;65.86
17311;BME280;8773;43.300;0.394;2022-12-05T01:57:15;99574.44;;;3.25;66.33
17311;BME280;8773;43.300;0.394;2022-12-05T01:59:46;99567.88;;;3.30;66.81
17311;BME280;8773;43.300;0.394;2022-12-05T02:02:16;99568.72;;;3.53;66.63
17311;BME280;8773;43.300;0.394;2022-12-05T02:04:57;99560.44;;;3.69;66.01
17311;BME280;8773;43.300;0.394;2022-12-05T02:07:28;99568.22;;;3.93;65.58
17311;BME280;8773;43.300;0.394;2022-12-05T02:09:56;99525.13;;;3.70;64.73
17311;BME280;8773;43.300;0.394;2022-12-05T02:12:25;99562.25;;;3.68;65.48
17311;BME280;8773;43.300;0.394;2022-12-05T02:15:22;99566.94;;;3.65;66.07
17311;BME280;8773;43.300;0.394;2022-12-05T02:18:19;99567.78;;;3.77;65.71
17311;BME280;8773;43.300;0.394;2022-12-05T02:21:05;99578.22;;;3.78;66.19
17311;BME280;8773;43.300;0.394;2022-12-05T02:23:51;99574.88;;;3.43;65.80
17311;BME280;8773;43.300;0.394;2022-12-05T02:26:38;99563.59;;;2.35;69.58
17311;BME280;8773;43.300;0.394;2022-12-05T02:29:29;99580.13;;;1.90;71.20
17311;BME280;8773;43.300;0.394;2022-12-05T02:32:06;99566.63;;;1.94;71.28
17311;BME280;8773;43.300;0.394;2022-12-05T02:34:44;99572.09;;;2.63;70.11
17311;BME280;8773;43.300;0.394;2022-12-05T02:37:18;99573.56;;;3.13;69.26
17311;BME280;8773;43.300;0.394;2022-12-05T02:39:52;99574.38;;;3.49;67.70
17311;BME280;8773;43.300;0.394;2022-12-05T02:42:27;99570.88;;;3.93;66.38
17311;BME280;8773;43.300;0.394;2022-12-05T02:45:00;99563.75;;;4.16;65.46
17311;BME280;8773;43.300;0.394;2022-12-05T02:47:36;99569.59;;;4.30;64.65
17311;BME280;8773;43.300;0.394;2022-12-05T02:50:08;99558.06;;;4.31;64.56
17311;BME280;8773;43.300;0.394;2022-12-05T02:52:37;99562.69;;;4.39;64.23
17311;BME280;8773;43.300;0.394;2022-12-05T02:55:07;99573.63;;;4.46;64.04
17311;BME280;8773;43.300;0.394;2022-12-05T02:57:36;99560.38;;;4.57;63.45
17311;BME280;8773;43.300;0.394;2022-12-05T03:00:06;99537.97;;;4.61;63.33
17311;BME280;8773;43.300;0.394;2022-12-05T03:02:39;99559.34;;;4.69;62.79
17311;BME280;8773;43.300;0.394;2022-12-05T03:05:16;99532.00;;;4.48;62.42
17311;BME280;8773;43.300;0.394;2022-12-05T03:07:48;99570.56;;;4.29;62.68
17311;BME280;8773;43.300;0.394;2022-12-05T03:10:21;99552.69;;;4.11;63.36
17311;BME280;8773;43.300;0.394;2022-12-05T03:12:54;99576.19;;;4.36;63.34
17311;BME280;8773;43.300;0.394;2022-12-05T03:15:26;99577.78;;;4.27;62.90
17311;BME280;8773;43.300;0.394;2022-12-05T03:18:01;99573.94;;;4.31;63.24
17311;BME280;8773;43.300;0.394;2022-12-05T03:20:34;99589.72;;;4.22;63.23
17311;BME280;8773;43.300;0.394;2022-12-05T03:23:08;99572.53;;;4.16;63.91
17311;BME280;8773;43.300;0.394;2022-12-05T03:25:48;99590.19;;;4.16;64.23
17311;BME280;8773;43.300;0.394;2022-12-05T03:28:23;99593.81;;;4.15;64.19
17311;BME280;8773;43.300;0.394;2022-12-05T03:30:53;99586.94;;;4.23;64.41
17311;BME280;8773;43.300;0.394;2022-12-05T03:33:28;99591.09;;;4.37;63.92
17311;BME280;8773;43.300;0.394;2022-12-05T03:36:04;99590.97;;;4.38;64.24
17311;BME280;8773;43.300;0.394;2022-12-05T03:38:40;99584.84;;;4.38;63.92
17311;BME280;8773;43.300;0.394;2022-12-05T03:41:16;99588.50;;;4.58;63.57
17311;BME280;8773;43.300;0.394;2022-12-05T03:43:51;99597.34;;;4.36;63.25
17311;BME280;8773;43.300;0.394;2022-12-05T03:46:25;99584.06;;;4.15;63.33
17311;BME280;8773;43.300;0.394;2022-12-05T03:48:58;99575.16;;;4.16;63.92
17311;BME280;8773;43.300;0.394;2022-12-05T03:51:33;99586.94;;;4.23;63.97
17311;BME280;8773;43.300;0.394;2022-12-05T03:54:05;99586.75;;;4.36;64.47
17311;BME280;8773;43.300;0.394;2022-12-05T03:56:38;99589.31;;;4.69;63.45
17311;BME280;8773;43.300;0.394;2022-12-05T03:59:13;99589.44;;;4.89;62.74
17311;BME280;8773;43.300;0.394;2022-12-05T04:01:42;99602.81;;;4.87;62.84
17311;BME280;8773;43.300;0.394;2022-12-05T04:04:17;99603.16;;;4.73;63.44
17311;BME280;8773;43.300;0.394;2022-12-05T04:06:49;99605.81;;;4.62;63.56
17311;BME280;8773;43.300;0.394;2022-12-05T04:09:43;99595.03;;;3.99;64.28
17311;BME280;8773;43.300;0.394;2022-12-05T04:12:16;99585.31;;;3.66;65.94
17311;BME280;8773;43.300;0.394;2022-12-05T04:14:49;99578.91;;;4.02;65.15
17311;BME280;8773;43.300;0.394;2022-12-05T04:17:26;99596.59;;;4.56;64.09
17311;BME280;8773;43.300;0.394;2022-12-05T04:19:59;99604.25;;;4.70;63.18
17311;BME280;8773;43.300;0.394;2022-12-05T04:22:47;99601.47;;;4.72;62.69
17311;BME280;8773;43.300;0.394;2022-12-05T04:25:16;99600.41;;;4.63;63.35
17311;BME280;8773;43.300;0.394;2022-12-05T04:28:10;99600.75;;;4.70;63.82
17311;BME280;8773;43.300;0.394;2022-12-05T04:30:51;99596.59;;;4.77;63.46
17311;BME280;8773;43.300;0.394;2022-12-05T04:33:28;99605.78;;;4.73;63.89
17311;BME280;8773;43.300;0.394;2022-12-05T04:36:06;99592.09;;;4.68;62.98
17311;BME280;8773;43.300;0.394;2022-12-05T04:38:41;99609.03;;;4.33;63.93
17311;BME280;8773;43.300;0.394;2022-12-05T04:41:12;99602.75;;;4.46;63.90
17311;BME280;8773;43.300;0.394;2022-12-05T04:43:44;99599.16;;;4.35;63.75
17311;BME280;8773;43.300;0.394;2022-12-05T04:46:15;99607.22;;;4.34;64.16
17311;BME280;8773;43.300;0.394;2022-12-05T04:48:50;99611.53;;;4.35;64.16
17311;BME280;8773;43.300;0.394;2022-12-05T04:51:23;99610.97;;;4.31;64.42
17311;BME280;8773;43.300;0.394;2022-12-05T04:53:55;99615.13;;;4.45;63.50
17311;BME280;8773;43.300;0.394;2022-12-05T04:56:26;99603.41;;;4.27;64.97
17311;BME280;8773;43.300;0.394;2022-12-05T04:58:56;99619.47;;;4.35;64.39
17311;BME280;8773;43.300;0.394;2022-12-05T05:01:30;99599.38;;;3.67;64.70
17311;BME280;8773;43.300;0.394;2022-12-05T05:04:05;99612.97;;;3.85;65.99
17311;BME280;8773;43.300;0.394;2022-12-05T05:06:37;99607.41;;;3.65;65.75
17311;BME280;8773;43.300;0.394;2022-12-05T05:09:06;99560.94;;;3.63;65.48
17311;BME280;8773;43.300;0.394;2022-12-05T05:11:34;99611.00;;;4.20;65.27
17311;BME280;8773;43.300;0.394;2022-12-05T05:14:03;99608.69;;;4.27;64.17
17311;BME280;8773;43.300;0.394;2022-12-05T05:16:33;99619.66;;;4.11;64.79
17311;BME280;8773;43.300;0.394;2022-12-05T05:19:02;99619.41;;;4.03;65.18
17311;BME280;8773;43.300;0.394;2022-12-05T05:21:33;99611.50;;;3.69;65.69
17311;BME280;8773;43.300;0.394;2022-12-05T05:24:03;99633.84;;;3.54;65.98
17311;BME280;8773;43.300;0.394;2022-12-05T05:26:33;99631.09;;;3.67;66.63
17311;BME280;8773;43.300;0.394;2022-12-05T05:29:02;99635.03;;;3.61;66.29
17311;BME280;8773;43.300;0.394;2022-12-05T05:31:30;99639.63;;;3.70;66.22
17311;BME280;8773;43.300;0.394;2022-12-05T05:33:59;99645.97;;;3.90;65.66
17311;BME280;8773;43.300;0.394;2022-12-05T05:36:35;99642.13;;;4.05;65.57
17311;BME280;8773;43.300;0.394;2022-12-05T05:39:05;99643.09;;;4.16;64.81
17311;BME280;8773;43.300;0.394;2022-12-05T05:41:38;99645.25;;;3.99;65.15
17311;BME280;8773;43.300;0.394;2022-12-05T05:44:06;99646.13;;;3.89;65.34
17311;BME280;8773;43.300;0.394;2022-12-05T05:46:35;99647.31;;;3.96;65.62
17311;BME280;8773;43.300;0.394;2022-12-05T05:49:03;99644.06;;;3.92;65.23
17311;BME280;8773;43.300;0.394;2022-12-05T05:51:32;99646.72;;;3.92;65.25
17311;BME280;8773;43.300;0.394;2022-12-05T05:54:01;99650.66;;;3.42;66.57
17311;BME280;8773;43.300;0.394;2022-12-05T05:56:30;99648.34;;;3.49;66.44
17311;BME280;8773;43.300;0.394;2022-12-05T05:58:59;99647.88;;;3.44;66.34
17311;BME280;8773;43.300;0.394;2022-12-05T06:01:28;99658.56;;;3.42;67.49
17311;BME280;8773;43.300;0.394;2022-12-05T06:03:56;99647.78;;;3.45;66.63
17311;BME280;8773;43.300;0.394;2022-12-05T06:06:25;99653.75;;;3.36;66.89
17311;BME280;8773;43.300;0.394;2022-12-05T06:08:53;99661.59;;;3.25;66.82
17311;BME280;8773;43.300;0.394;2022-12-05T06:11:23;99649.31;;;3.13;67.04
17311;BME280;8773;43.300;0.394;2022-12-05T06:13:55;99651.44;;;2.96;68.51
17311;BME280;8773;43.300;0.394;2022-12-05T06:16:23;99657.19;;;2.90;67.98
17311;BME280;8773;43.300;0.394;2022-12-05T06:18:54;99655.88;;;2.72;68.37
17311;BME280;8773;43.300;0.394;2022-12-05T06:21:23;99643.59;;;2.23;69.91
17311;BME280;8773;43.300;0.394;2022-12-05T06:23:51;99664.75;;;2.47;69.08
17311;BME280;8773;43.300;0.394;2022-12-05T06:26:20;99662.75;;;2.51;69.26
17311;BME280;8773;43.300;0.394;2022-12-05T06:28:48;99667.69;;;2.55;68.94
17311;BME280;8773;43.300;0.394;2022-12-05T06:31:20;99677.22;;;2.45;68.99
17311;BME280;8773;43.300;0.394;2022-12-05T06:33:48;99685.53;;;2.52;69.33
17311;BME280;8773;43.300;0.394;2022-12-05T06:36:18;99685.22;;;2.44;68.68
17311;BME280;8773;43.300;0.394;2022-12-05T06:38:47;99686.63;;;2.36;69.03
17311;BME280;8773;43.300;0.394;2022-12-05T06:41:18;99699.47;;;2.54;68.72
17311;BME280;8773;43.300;0.394;2022-12-05T06:43:46;99695.75;;;2.56;68.77
17311;BME280;8773;43.300;0.394;2022-12-05T06:46:15;99698.34;;;2.32;69.48
17311;BME280;8773;43.300;0.394;2022-12-05T06:48:45;99694.28;;;2.03;70.58
17311;BME280;8773;43.300;0.394;2022-12-05T06:51:15;99693.03;;;1.96;71.02
17311;BME280;8773;43.300;0.394;2022-12-05T06:53:43;99686.50;;;2.01;71.41
17311;BME280;8773;43.300;0.394;2022-12-05T06:56:13;99694.28;;;1.90;71.53
17311;BME280;8773;43.300;0.394;2022-12-05T06:58:42;99696.09;;;1.90;72.09
17311;BME280;8773;43.300;0.394;2022-12-05T07:01:11;99693.34;;;2.04;71.19
17311;BME280;8773;43.300;0.394;2022-12-05T07:03:59;99692.97;;;2.21;71.03
17311;BME280;8773;43.300;0.394;2022-12-05T07:06:27;99697.28;;;2.22;71.10
17311;BME280;8773;43.300;0.394;2022-12-05T07:08:55;99683.91;;;2.25;70.78
17311;BME280;8773;43.300;0.394;2022-12-05T07:11:24;99698.34;;;2.32;69.83
17311;BME280;8773;43.300;0.394;2022-12-05T07:13:52;99700.97;;;2.32;69.72
17311;BME280;8773;43.300;0.394;2022-12-05T07:16:20;99706.69;;;2.26;70.08
17311;BME280;8773;43.300;0.394;2022-12-05T07:18:48;99711.38;;;2.10;70.66
17311;BME280;8773;43.300;0.394;2022-12-05T07:21:18;99707.25;;;1.55;71.87
17311;BME280;8773;43.300;0.394;2022-12-05T07:23:48;99718.22;;;1.74;72.16
17311;BME280;8773;43.300;0.394;2022-12-05T07:26:19;99703.34;;;1.73;71.58
17311;BME280;8773;43.300;0.394;2022-12-05T07:28:49;99704.94;;;1.89;71.88
17311;BME280;8773;43.300;0.394;2022-12-05T07:31:19;99723.28;;;1.90;71.62
17311;BME280;8773;43.300;0.394;2022-12-05T07:33:48;99726.56;;;1.68;71.53
17311;BME280;8773;43.300;0.394;2022-12-05T07:36:19;99732.13;;;1.12;73.42
17311;BME280;8773;43.300;0.394;2022-12-05T07:38:53;99730.84;;;1.44;73.29
17311;BME280;8773;43.300;0.394;2022-12-05T07:41:24;99727.72;;;1.90;72.43
17311;BME280;8773;43.300;0.394;2022-12-05T07:43:53;99728.56;;;2.16;70.86
17311;BME280;8773;43.300;0.394;2022-12-05T07:46:23;99715.53;;;2.25;69.94
17311;BME280;8773;43.300;0.394;2022-12-05T07:48:51;99725.94;;;2.52;70.17
17311;BME280;8773;43.300;0.394;2022-12-05T07:51:22;99725.78;;;2.66;69.37
17311;BME280;8773;43.300;0.394;2022-12-05T07:53:50;99731.75;;;2.81;68.18
17311;BME280;8773;43.300;0.394;2022-12-05T07:56:18;99731.97;;;2.78;67.60
17311;BME280;8773;43.300;0.394;2022-12-05T07:58:48;99741.22;;;2.96;67.66
17311;BME280;8773;43.300;0.394;2022-12-05T08:01:18;99737.63;;;2.97;67.50
17311;BME280;8773;43.300;0.394;2022-12-05T08:03:48;99743.78;;;3.09;67.18
17311;BME280;8773;43.300;0.394;2022-12-05T08:06:17;99737.66;;;3.08;67.18
17311;BME280;8773;43.300;0.394;2022-12-05T08:08:47;99746.59;;;3.19;66.14
17311;BME280;8773;43.300;0.394;2022-12-05T08:11:19;99752.53;;;3.09;65.90
17311;BME280;8773;43.300;0.394;2022-12-05T08:13:48;99750.41;;;3.15;66.00
17311;BME280;8773;43.300;0.394;2022-12-05T08:16:18;99750.91;;;3.20;65.46
17311;BME280;8773;43.300;0.394;2022-12-05T08:18:47;99750.16;;;3.30;65.36
17311;BME280;8773;43.300;0.394;2022-12-05T08:21:18;99748.66;;;3.26;65.92
17311;BME280;8773;43.300;0.394;2022-12-05T08:23:47;99757.38;;;3.16;65.15
17311;BME280;8773;43.300;0.394;2022-12-05T08:26:21;99750.28;;;3.29;65.79
17311;BME280;8773;43.300;0.394;2022-12-05T08:28:51;99749.09;;;3.33;65.42
17311;BME280;8773;43.300;0.394;2022-12-05T08:31:21;99740.41;;;3.07;65.28
17311;BME280;8773;43.300;0.394;2022-12-05T08:33:51;99745.06;;;3.27;65.65
17311;BME280;8773;43.300;0.394;2022-12-05T08:36:26;99737.75;;;3.55;65.10
17311;BME280;8773;43.300;0.394;2022-12-05T08:38:56;99746.34;;;3.81;64.69
17311;BME280;8773;43.300;0.394;2022-12-05T08:41:25;99737.94;;;3.87;64.32
17311;BME280;8773;43.300;0.394;2022-12-05T08:43:56;99736.25;;;3.97;64.33
17311;BME280;8773;43.300;0.394;2022-12-05T08:46:25;99744.69;;;4.13;64.35
17311;BME280;8773;43.300;0.394;2022-12-05T08:48:53;99747.59;;;4.21;63.38
17311;BME280;8773;43.300;0.394;2022-12-05T08:51:21;99746.41;;;4.25;63.73
17311;BME280;8773;43.300;0.394;2022-12-05T08:53:49;99751.56;;;4.27;63.25
17311;BME280;8773;43.300;0.394;2022-12-05T08:56:22;99751.22;;;4.31;62.57
17311;BME280;8773;43.300;0.394;2022-12-05T08:58:53;99748.31;;;4.46;62.45
17311;BME280;8773;43.300;0.394;2022-12-05T09:01:29;99756.97;;;4.59;62.28
17311;BME280;8773;43.300;0.394;2022-12-05T09:03:58;99728.56;;;4.38;62.33
17311;BME280;8773;43.300;0.394;2022-12-05T09:06:27;99752.28;;;4.62;62.15
17311;BME280;8773;43.300;0.394;2022-12-05T09:08:57;99752.88;;;4.55;61.77
17311;BME280;8773;43.300;0.394;2022-12-05T09:11:28;99748.91;;;4.71;62.20
17311;BME280;8773;43.300;0.394;2022-12-05T09:13:58;99741.47;;;4.97;61.82
17311;BME280;8773;43.300;0.394;2022-12-05T09:16:28;99749.69;;;5.26;61.11
17311;BME280;8773;43.300;0.394;2022-12-05T09:19:03;99740.84;;;5.37;61.19
17311;BME280;8773;43.300;0.394;2022-12-05T09:21:32;99745.59;;;5.54;60.68
17311;BME280;8773;43.300;0.394;2022-12-05T09:24:00;99742.88;;;5.65;60.14
17311;BME280;8773;43.300;0.394;2022-12-05T09:26:30;99740.69;;;5.70;59.23
17311;BME280;8773;43.300;0.394;2022-12-05T09:28:58;99721.72;;;5.33;58.92
17311;BME280;8773;43.300;0.394;2022-12-05T09:31:28;99736.47;;;5.47;59.31
17311;BME280;8773;43.300;0.394;2022-12-05T09:33:56;99737.75;;;5.85;59.74
17311;BME280;8773;43.300;0.394;2022-12-05T09:36:25;99712.56;;;6.00;58.05
17311;BME280;8773;43.300;0.394;2022-12-05T09:38:57;99728.38;;;6.42;58.80
17311;BME280;8773;43.300;0.394;2022-12-05T09:41:42;99727.19;;;6.65;58.26
17311;BME280;8773;43.300;0.394;2022-12-05T09:44:44;99730.72;;;6.75;57.04
17311;BME280;8773;43.300;0.394;2022-12-05T09:47:27;99730.03;;;6.83;56.40
17311;BME280;8773;43.300;0.394;2022-12-05T09:49:58;99724.06;;;6.90;56.91
17311;BME280;8773;43.300;0.394;2022-12-05T09:52:30;99720.25;;;6.83;56.84
17311;BME280;8773;43.300;0.394;2022-12-05T09:55:02;99731.03;;;7.01;55.93
17311;BME280;8773;43.300;0.394;2022-12-05T09:57:36;99728.97;;;7.14;55.68
17311;BME280;8773;43.300;0.394;2022-12-05T10:00:07;99729.94;;;7.23;54.99
17311;BME280;8773;43.300;0.394;2022-12-05T10:02:45;99717.38;;;7.25;55.49
17311;BME280;8773;43.300;0.394;2022-12-05T10:05:18;99713.56;;;7.18;54.25
17311;BME280;8773;43.300;0.394;2022-12-05T10:07:55;99707.72;;;7.24;54.50
17311;BME280;8773;43.300;0.394;2022-12-05T10:10:37;99714.56;;;7.36;55.18
17311;BME280;8773;43.300;0.394;2022-12-05T10:16:17;99705.31;;;7.40;54.96
17311;BME280;8773;43.300;0.394;2022-12-05T10:18:50;99701.09;;;7.47;54.99
17311;BME280;8773;43.300;0.394;2022-12-05T10:21:21;99710.50;;;7.70;54.58
17311;BME280;8773;43.300;0.394;2022-12-05T10:23:53;99695.66;;;7.68;53.80
17311;BME280;8773;43.300;0.394;2022-12-05T10:26:27;99705.69;;;7.84;53.82
17311;BME280;8773;43.300;0.394;2022-12-05T10:29:02;99704.81;;;8.02;53.33
17311;BME280;8773;43.300;0.394;2022-12-05T10:31:36;99705.88;;;8.19;53.00
17311;BME280;8773;43.300;0.394;2022-12-05T10:34:12;99697.28;;;8.25;52.14
17311;BME280;8773;43.300;0.394;2022-12-05T10:36:44;99693.28;;;8.21;51.66
17311;BME280;8773;43.300;0.394;2022-12-05T10:39:20;99693.88;;;8.05;51.51
17311;BME280;8773;43.300;0.394;2022-12-05T10:41:48;99684.94;;;7.97;52.11
17311;BME280;8773;43.300;0.394;2022-12-05T10:44:17;99692.16;;;8.14;52.96
17311;BME280;8773;43.300;0.394;2022-12-05T10:46:47;99679.44;;;8.35;52.75
17311;BME280;8773;43.300;0.394;2022-12-05T10:49:17;99673.16;;;8.64;52.64
17311;BME280;8773;43.300;0.394;2022-12-05T10:51:46;99662.78;;;8.79;51.45
17311;BME280;8773;43.300;0.394;2022-12-05T10:54:17;99639.56;;;8.89;50.90
17311;BME280;8773;43.300;0.394;2022-12-05T10:56:49;99650.59;;;9.12;50.62
17311;BME280;8773;43.300;0.394;2022-12-05T10:59:21;99646.44;;;9.45;49.37
17311;BME280;8773;43.300;0.394;2022-12-05T11:01:54;99637.44;;;9.71;48.19
17311;BME280;8773;43.300;0.394;2022-12-05T11:04:26;99636.38;;;9.90;48.32
17311;BME280;8773;43.300;0.394;2022-12-05T11:06:57;99620.63;;;10.13;48.70
17311;BME280;8773;43.300;0.394;2022-12-05T11:09:28;99627.41;;;10.42;47.33
17311;BME280;8773;43.300;0.394;2022-12-05T11:12:17;99627.19;;;10.69;46.84
17311;BME280;8773;43.300;0.394;2022-12-05T11:14:56;99624.88;;;10.90;45.67
17311;BME280;8773;43.300;0.394;2022-12-05T11:17:30;99619.19;;;11.01;45.44
17311;BME280;8773;43.300;0.394;2022-12-05T11:19:59;99602.00;;;11.12;44.80
17311;BME280;8773;43.300;0.394;2022-12-05T11:22:32;99601.16;;;11.12;43.84
17311;BME280;8773;43.300;0.394;2022-12-05T11:25:24;99597.31;;;10.98;42.58
17311;BME280;8773;43.300;0.394;2022-12-05T11:27:56;99597.13;;;10.91;42.77
17311;BME280;8773;43.300;0.394;2022-12-05T11:30:28;99592.44;;;10.93;42.69
17311;BME280;8773;43.300;0.394;2022-12-05T11:33:15;99592.13;;;10.96;42.48
17311;BME280;8773;43.300;0.394;2022-12-05T11:35:45;99590.13;;;10.98;43.21
17311;BME280;8773;43.300;0.394;2022-12-05T11:38:16;99596.47;;;11.05;43.47
17311;BME280;8773;43.300;0.394;2022-12-05T11:40:51;99590.09;;;10.90;43.07
17311;BME280;8773;43.300;0.394;2022-12-05T11:43:40;99598.47;;;10.95;43.44
17311;BME280;8773;43.300;0.394;2022-12-05T11:46:18;99595.81;;;11.03;43.28
17311;BME280;8773;43.300;0.394;2022-12-05T11:49:02;99585.44;;;11.00;43.92
17311;BME280;8773;43.300;0.394;2022-12-05T11:51:38;99584.94;;;11.05;43.64
17311;BME280;8773;43.300;0.394;2022-12-05T11:54:34;99560.38;;;11.10;44.03
17311;BME280;8773;43.300;0.394;2022-12-05T11:57:35;99549.00;;;10.99;43.59
17311;BME280;8773;43.300;0.394;2022-12-05T12:00:17;99559.69;;;11.16;43.37
17311;BME280;8773;43.300;0.394;2022-12-05T12:03:15;99550.00;;;11.23;44.09
17311;BME280;8773;43.300;0.394;2022-12-05T12:05:55;99550.00;;;11.23;43.74
17311;BME280;8773;43.300;0.394;2022-12-05T12:08:29;99553.63;;;11.30;43.84
17311;BME280;8773;43.300;0.394;2022-12-05T12:11:14;99547.13;;;11.32;44.10
17311;BME280;8773;43.300;0.394;2022-12-05T12:13:55;99540.06;;;11.48;43.54
17311;BME280;8773;43.300;0.394;2022-12-05T12:16:32;99515.50;;;11.44;42.42
17311;BME280;8773;43.300;0.394;2022-12-05T12:19:13;99515.78;;;11.57;42.31
17311;BME280;8773;43.300;0.394;2022-12-05T12:22:05;99514.13;;;11.56;39.95
17311;BME280;8773;43.300;0.394;2022-12-05T12:24:47;99504.50;;;11.70;39.54
17311;BME280;8773;43.300;0.394;2022-12-05T12:27:28;99494.94;;;11.76;38.24
17311;BME280;8773;43.300;0.394;2022-12-05T12:30:02;99496.28;;;11.88;36.89
17311;BME280;8773;43.300;0.394;2022-12-05T12:32:39;99504.66;;;11.85;34.96
17311;BME280;8773;43.300;0.394;2022-12-05T12:35:25;99511.28;;;12.28;35.46
17311;BME280;8773;43.300;0.394;2022-12-05T12:38:16;99500.75;;;12.26;34.50
17311;BME280;8773;43.300;0.394;2022-12-05T12:40:50;99496.25;;;12.50;35.06
17311;BME280;8773;43.300;0.394;2022-12-05T12:43:33;99500.31;;;12.46;33.41
17311;BME280;8773;43.300;0.394;2022-12-05T12:46:35;99497.31;;;12.41;33.22
17311;BME280;8773;43.300;0.394;2022-12-05T12:49:19;99495.34;;;12.12;34.30
17311;BME280;8773;43.300;0.394;2022-12-05T12:51:53;99497.19;;;12.34;34.24
17311;BME280;8773;43.300;0.394;2022-12-05T12:54:38;99495.63;;;12.62;33.90
17311;BME280;8773;43.300;0.394;2022-12-05T12:57:40;99498.44;;;12.69;33.23
17311;BME280;8773;43.300;0.394;2022-12-05T13:00:16;99505.03;;;12.81;33.89
17311;BME280;8773;43.300;0.394;2022-12-05T13:02:50;99497.94;;;12.88;33.12
17311;BME280;8773;43.300;0.394;2022-12-05T13:05:26;99500.91;;;13.16;34.34
17311;BME280;8773;43.300;0.394;2022-12-05T13:08:02;99497.59;;;13.29;33.87
17311;BME280;8773;43.300;0.394;2022-12-05T13:10:36;99496.97;;;13.42;34.51
17311;BME280;8773;43.300;0.394;2022-12-05T13:13:07;99495.13;;;13.04;33.93
17311;BME280;8773;43.300;0.394;2022-12-05T13:15:42;99495.88;;;12.76;34.25
17311;BME280;8773;43.300;0.394;2022-12-05T13:18:16;99492.38;;;12.52;34.80
17311;BME280;8773;43.300;0.394;2022-12-05T13:20:46;99494.66;;;12.10;35.62
17311;BME280;8773;43.300;0.394;2022-12-05T13:23:17;99482.66;;;12.28;34.45
17311;BME280;8773;43.300;0.394;2022-12-05T13:25:47;99474.94;;;12.71;35.81
17311;BME280;8773;43.300;0.394;2022-12-05T13:28:24;99476.84;;;12.62;36.82
17311;BME280;8773;43.300;0.394;2022-12-05T13:30:54;99471.97;;;12.66;35.01
17311;BME280;8773;43.300;0.394;2022-12-05T13:33:33;99468.06;;;12.54;36.46
17311;BME280;8773;43.300;0.394;2022-12-05T13:36:07;99459.50;;;12.73;36.29
17311;BME280;8773;43.300;0.394;2022-12-05T13:39:02;99458.19;;;12.92;35.90
17311;BME280;8773;43.300;0.394;2022-12-05T13:41:52;99471.75;;;13.28;35.67
17311;BME280;8773;43.300;0.394;2022-12-05T13:44:41;99464.44;;;13.22;34.99
17311;BME280;8773;43.300;0.394;2022-12-05T13:47:25;99456.47;;;13.58;35.12
17311;BME280;8773;43.300;0.394;2022-12-05T13:49:59;99453.94;;;13.86;34.89
17311;BME280;8773;43.300;0.394;2022-12-05T13:52:31;99449.81;;;14.19;34.83
17311;BME280;8773;43.300;0.394;2022-12-05T13:55:15;99452.47;;;13.83;34.76
17311;BME280;8773;43.300;0.394;2022-12-05T13:58:36;99439.56;;;13.43;33.86
17311;BME280;8773;43.300;0.394;2022-12-05T14:07:11;99433.88;;;13.52;35.57